This is the latest recevied weather packets stored in our database for station/object DL1SEW-6. If no packets are shown the sender has not sent any weather packets the latest 10 day(s).
| Time | Temp. | Humidity | Pressure | Rain* | Wind** | Luminosity | Snow |
|---|---|---|---|---|---|---|---|
| 1777786795 | 12.22° C | 71% | 1014.5 hPa | 0 mm | - | 171 W/m² | - |
| 1777785895 | 11.11° C | 75% | 1014.5 hPa | 0 mm | - | 130 W/m² | - |
| 1777784995 | 10° C | 76% | 1014.3 hPa | 0 mm | - | 138 W/m² | - |
| 1777784097 | 10° C | 76% | 1014.2 hPa | 0 mm | - | 63 W/m² | - |
| 1777783194 | 10° C | 76% | 1014.2 hPa | 0 mm | - | 31 W/m² | - |
| 1777782294 | 10° C | 77% | 1014.3 hPa | 0 mm | - | 15 W/m² | - |
| 1777781394 | 9.44° C | 76% | 1014.3 hPa | 0 mm | - | 0 W/m² | - |
| 1777780496 | 9.44° C | 75% | 1014.4 hPa | 0 mm | - | 0 W/m² | - |
| 1777779596 | 9.44° C | 73% | 1014.6 hPa | 0 mm | - | 0 W/m² | - |
| 1777778696 | 10° C | 73% | 1014.6 hPa | 0 mm | - | 0 W/m² | - |
| 1777777793 | 10° C | 74% | 1014.5 hPa | 0 mm | - | 0 W/m² | - |
| 1777776893 | 10° C | 72% | 1014.4 hPa | 0 mm | - | 0 W/m² | - |
| 1777775993 | 10° C | 71% | 1014.5 hPa | 0 mm | - | 0 W/m² | - |
| 1777775093 | 10.56° C | 69% | 1014.7 hPa | 0 mm | - | 0 W/m² | - |
| 1777774195 | 10.56° C | 67% | 1014.8 hPa | 0 mm | - | 0 W/m² | - |
| 1777773293 | 11.11° C | 67% | 1014.9 hPa | 0 mm | - | 0 W/m² | - |
| 1777772392 | 11.67° C | 65% | 1015 hPa | 0 mm | - | 0 W/m² | - |
| 1777771494 | 11.67° C | 65% | 1015.1 hPa | 0 mm | - | 0 W/m² | - |
| 1777770592 | 11.67° C | 65% | 1015.1 hPa | 0 mm | - | 0 W/m² | - |
| 1777769694 | 11.67° C | 65% | 1015.2 hPa | 0 mm | - | 0 W/m² | - |
| 1777768793 | 11.67° C | 65% | 1015.3 hPa | 0 mm | - | 0 W/m² | - |
| 1777767891 | 11.67° C | 65% | 1015.4 hPa | 0 mm | - | 0 W/m² | - |
| 1777766996 | 11.67° C | 64% | 1015.4 hPa | 0 mm | - | 0 W/m² | - |
| 1777766097 | 12.22° C | 63% | 1015.4 hPa | 0 mm | - | 0 W/m² | - |
| 1777765196 | 12.78° C | 61% | 1015.7 hPa | 0 mm | - | 0 W/m² | - |
* Rain latest hour (hover to see other rain measurements)
** Current wind speed in m/s (hover to see current wind gust speed)